sensor_id;sensor_type;location;lat;lon;timestamp;P1;durP1;ratioP1;P2;durP2;ratioP2
7495;SDS011;3789;47.064;15.482;2022-12-05T00:02:06;29.50;;;16.23;;
7495;SDS011;3789;47.064;15.482;2022-12-05T00:04:36;26.73;;;14.57;;
7495;SDS011;3789;47.064;15.482;2022-12-05T00:07:14;27.10;;;14.60;;
7495;SDS011;3789;47.064;15.482;2022-12-05T00:09:42;27.00;;;15.03;;
7495;SDS011;3789;47.064;15.482;2022-12-05T00:12:13;22.27;;;13.97;;
7495;SDS011;3789;47.064;15.482;2022-12-05T00:14:43;22.73;;;13.70;;
7495;SDS011;3789;47.064;15.482;2022-12-05T00:17:11;21.27;;;13.10;;
7495;SDS011;3789;47.064;15.482;2022-12-05T00:19:41;23.70;;;13.93;;
7495;SDS011;3789;47.064;15.482;2022-12-05T00:22:13;22.60;;;13.63;;
7495;SDS011;3789;47.064;15.482;2022-12-05T00:24:42;27.03;;;14.97;;
7495;SDS011;3789;47.064;15.482;2022-12-05T00:27:13;21.20;;;13.27;;
7495;SDS011;3789;47.064;15.482;2022-12-05T00:29:44;22.20;;;14.30;;
7495;SDS011;3789;47.064;15.482;2022-12-05T00:32:13;24.40;;;14.07;;
7495;SDS011;3789;47.064;15.482;2022-12-05T00:34:42;24.80;;;15.20;;
7495;SDS011;3789;47.064;15.482;2022-12-05T00:37:12;25.60;;;15.27;;
7495;SDS011;3789;47.064;15.482;2022-12-05T00:39:49;26.73;;;15.43;;
7495;SDS011;3789;47.064;15.482;2022-12-05T00:42:19;23.77;;;15.17;;
7495;SDS011;3789;47.064;15.482;2022-12-05T00:44:56;24.77;;;15.63;;
7495;SDS011;3789;47.064;15.482;2022-12-05T00:47:25;25.67;;;15.27;;
7495;SDS011;3789;47.064;15.482;2022-12-05T00:49:56;28.27;;;15.67;;
7495;SDS011;3789;47.064;15.482;2022-12-05T00:52:26;26.80;;;16.63;;
7495;SDS011;3789;47.064;15.482;2022-12-05T00:54:57;26.83;;;15.60;;
7495;SDS011;3789;47.064;15.482;2022-12-05T00:57:28;27.50;;;16.10;;
7495;SDS011;3789;47.064;15.482;2022-12-05T00:59:58;25.50;;;16.23;;
7495;SDS011;3789;47.064;15.482;2022-12-05T01:02:34;23.07;;;15.80;;
7495;SDS011;3789;47.064;15.482;2022-12-05T01:08:42;26.73;;;15.77;;
7495;SDS011;3789;47.064;15.482;2022-12-05T01:11:15;25.73;;;15.53;;
7495;SDS011;3789;47.064;15.482;2022-12-05T01:13:46;27.33;;;16.03;;
7495;SDS011;3789;47.064;15.482;2022-12-05T01:16:20;27.83;;;15.80;;
7495;SDS011;3789;47.064;15.482;2022-12-05T01:18:51;25.30;;;16.07;;
7495;SDS011;3789;47.064;15.482;2022-12-05T01:21:18;24.83;;;15.97;;
7495;SDS011;3789;47.064;15.482;2022-12-05T01:23:56;27.77;;;16.77;;
7495;SDS011;3789;47.064;15.482;2022-12-05T01:26:28;27.43;;;16.20;;
7495;SDS011;3789;47.064;15.482;2022-12-05T01:29:00;29.20;;;17.23;;
7495;SDS011;3789;47.064;15.482;2022-12-05T01:31:33;29.30;;;16.20;;
7495;SDS011;3789;47.064;15.482;2022-12-05T01:34:04;25.90;;;14.67;;
7495;SDS011;3789;47.064;15.482;2022-12-05T01:36:49;28.23;;;15.27;;
7495;SDS011;3789;47.064;15.482;2022-12-05T01:39:18;26.57;;;15.57;;
7495;SDS011;3789;47.064;15.482;2022-12-05T01:41:47;22.60;;;13.90;;
7495;SDS011;3789;47.064;15.482;2022-12-05T01:46:51;24.57;;;15.00;;
7495;SDS011;3789;47.064;15.482;2022-12-05T01:49:26;26.33;;;14.70;;
7495;SDS011;3789;47.064;15.482;2022-12-05T01:52:39;24.43;;;14.80;;
7495;SDS011;3789;47.064;15.482;2022-12-05T01:55:05;28.33;;;15.50;;
7495;SDS011;3789;47.064;15.482;2022-12-05T01:57:39;30.67;;;15.87;;
7495;SDS011;3789;47.064;15.482;2022-12-05T02:00:12;24.43;;;15.13;;
7495;SDS011;3789;47.064;15.482;2022-12-05T02:02:55;28.93;;;15.83;;
7495;SDS011;3789;47.064;15.482;2022-12-05T02:05:35;26.73;;;15.40;;
7495;SDS011;3789;47.064;15.482;2022-12-05T02:08:10;26.77;;;13.83;;
7495;SDS011;3789;47.064;15.482;2022-12-05T02:10:52;25.37;;;14.37;;
7495;SDS011;3789;47.064;15.482;2022-12-05T02:21:57;25.53;;;14.17;;
7495;SDS011;3789;47.064;15.482;2022-12-05T02:28:13;24.93;;;15.13;;
7495;SDS011;3789;47.064;15.482;2022-12-05T02:31:07;24.83;;;15.03;;
7495;SDS011;3789;47.064;15.482;2022-12-05T02:42:40;26.67;;;15.53;;
7495;SDS011;3789;47.064;15.482;2022-12-05T02:45:37;28.80;;;16.67;;
7495;SDS011;3789;47.064;15.482;2022-12-05T02:48:10;55.07;;;17.07;;
7495;SDS011;3789;47.064;15.482;2022-12-05T02:50:44;30.37;;;16.93;;
7495;SDS011;3789;47.064;15.482;2022-12-05T02:53:20;28.70;;;15.60;;
7495;SDS011;3789;47.064;15.482;2022-12-05T02:55:49;27.77;;;16.10;;
7495;SDS011;3789;47.064;15.482;2022-12-05T02:58:20;26.90;;;15.10;;
7495;SDS011;3789;47.064;15.482;2022-12-05T03:01:02;27.03;;;15.77;;
7495;SDS011;3789;47.064;15.482;2022-12-05T03:03:35;22.53;;;14.20;;
7495;SDS011;3789;47.064;15.482;2022-12-05T03:06:15;26.27;;;14.87;;
7495;SDS011;3789;47.064;15.482;2022-12-05T03:08:51;23.73;;;14.63;;
7495;SDS011;3789;47.064;15.482;2022-12-05T03:11:24;23.57;;;14.37;;
7495;SDS011;3789;47.064;15.482;2022-12-05T03:13:57;21.63;;;12.87;;
7495;SDS011;3789;47.064;15.482;2022-12-05T03:16:38;21.60;;;12.80;;
7495;SDS011;3789;47.064;15.482;2022-12-05T03:19:17;21.67;;;12.93;;
7495;SDS011;3789;47.064;15.482;2022-12-05T03:22:26;22.83;;;13.03;;
7495;SDS011;3789;47.064;15.482;2022-12-05T03:25:01;22.40;;;13.27;;
7495;SDS011;3789;47.064;15.482;2022-12-05T03:27:58;22.57;;;12.03;;
7495;SDS011;3789;47.064;15.482;2022-12-05T03:30:39;17.17;;;10.53;;
7495;SDS011;3789;47.064;15.482;2022-12-05T03:33:11;15.43;;;8.90;;
7495;SDS011;3789;47.064;15.482;2022-12-05T03:36:10;15.13;;;9.53;;
7495;SDS011;3789;47.064;15.482;2022-12-05T03:38:56;15.73;;;9.83;;
7495;SDS011;3789;47.064;15.482;2022-12-05T03:42:12;19.50;;;10.33;;
7495;SDS011;3789;47.064;15.482;2022-12-05T03:44:49;14.70;;;9.83;;
7495;SDS011;3789;47.064;15.482;2022-12-05T03:47:31;20.53;;;10.10;;
7495;SDS011;3789;47.064;15.482;2022-12-05T03:50:37;32.17;;;10.40;;
7495;SDS011;3789;47.064;15.482;2022-12-05T03:53:09;31.87;;;10.23;;
7495;SDS011;3789;47.064;15.482;2022-12-05T03:56:11;29.87;;;10.60;;
7495;SDS011;3789;47.064;15.482;2022-12-05T03:58:50;28.33;;;10.90;;
7495;SDS011;3789;47.064;15.482;2022-12-05T04:01:43;47.37;;;11.43;;
7495;SDS011;3789;47.064;15.482;2022-12-05T04:04:18;39.23;;;10.17;;
7495;SDS011;3789;47.064;15.482;2022-12-05T04:07:14;61.30;;;14.60;;
7495;SDS011;3789;47.064;15.482;2022-12-05T04:09:47;67.83;;;13.40;;
7495;SDS011;3789;47.064;15.482;2022-12-05T04:12:30;84.80;;;14.43;;
7495;SDS011;3789;47.064;15.482;2022-12-05T04:15:07;75.63;;;12.73;;
7495;SDS011;3789;47.064;15.482;2022-12-05T04:17:58;106.23;;;15.90;;
7495;SDS011;3789;47.064;15.482;2022-12-05T04:20:34;75.33;;;13.90;;
7495;SDS011;3789;47.064;15.482;2022-12-05T04:23:40;61.07;;;14.80;;
7495;SDS011;3789;47.064;15.482;2022-12-05T04:26:20;65.20;;;15.20;;
7495;SDS011;3789;47.064;15.482;2022-12-05T04:29:04;76.57;;;14.47;;
7495;SDS011;3789;47.064;15.482;2022-12-05T04:32:00;45.10;;;12.70;;
7495;SDS011;3789;47.064;15.482;2022-12-05T04:34:46;83.00;;;14.67;;
7495;SDS011;3789;47.064;15.482;2022-12-05T04:37:22;62.37;;;13.70;;
7495;SDS011;3789;47.064;15.482;2022-12-05T04:40:01;114.77;;;16.60;;
7495;SDS011;3789;47.064;15.482;2022-12-05T04:42:41;36.30;;;12.07;;
7495;SDS011;3789;47.064;15.482;2022-12-05T04:45:16;157.50;;;19.13;;
7495;SDS011;3789;47.064;15.482;2022-12-05T04:47:59;42.27;;;8.83;;
7495;SDS011;3789;47.064;15.482;2022-12-05T04:50:32;26.20;;;9.10;;
7495;SDS011;3789;47.064;15.482;2022-12-05T04:53:06;20.97;;;8.43;;
7495;SDS011;3789;47.064;15.482;2022-12-05T04:55:39;21.27;;;12.47;;
7495;SDS011;3789;47.064;15.482;2022-12-05T04:58:22;24.83;;;11.87;;
7495;SDS011;3789;47.064;15.482;2022-12-05T05:06:39;22.37;;;11.90;;
7495;SDS011;3789;47.064;15.482;2022-12-05T05:09:08;38.00;;;17.13;;
7495;SDS011;3789;47.064;15.482;2022-12-05T05:11:59;33.57;;;15.00;;
7495;SDS011;3789;47.064;15.482;2022-12-05T05:14:29;35.90;;;15.33;;
7495;SDS011;3789;47.064;15.482;2022-12-05T05:17:07;29.57;;;13.43;;
7495;SDS011;3789;47.064;15.482;2022-12-05T05:19:38;30.00;;;13.30;;
7495;SDS011;3789;47.064;15.482;2022-12-05T05:22:13;26.97;;;12.57;;
7495;SDS011;3789;47.064;15.482;2022-12-05T05:24:50;39.47;;;17.27;;
7495;SDS011;3789;47.064;15.482;2022-12-05T05:27:19;35.27;;;16.67;;
7495;SDS011;3789;47.064;15.482;2022-12-05T05:29:50;42.00;;;18.10;;
7495;SDS011;3789;47.064;15.482;2022-12-05T05:32:17;38.73;;;17.70;;
7495;SDS011;3789;47.064;15.482;2022-12-05T05:34:49;37.77;;;18.00;;
7495;SDS011;3789;47.064;15.482;2022-12-05T05:37:19;29.93;;;16.07;;
7495;SDS011;3789;47.064;15.482;2022-12-05T05:39:47;34.43;;;16.07;;
7495;SDS011;3789;47.064;15.482;2022-12-05T05:42:25;33.57;;;16.03;;
7495;SDS011;3789;47.064;15.482;2022-12-05T05:45:02;30.50;;;14.13;;
7495;SDS011;3789;47.064;15.482;2022-12-05T05:47:31;33.00;;;14.83;;
7495;SDS011;3789;47.064;15.482;2022-12-05T05:50:00;26.57;;;14.73;;
7495;SDS011;3789;47.064;15.482;2022-12-05T05:52:33;30.10;;;14.30;;
7495;SDS011;3789;47.064;15.482;2022-12-05T05:55:07;30.20;;;14.13;;
7495;SDS011;3789;47.064;15.482;2022-12-05T05:57:36;27.00;;;14.27;;
7495;SDS011;3789;47.064;15.482;2022-12-05T06:00:12;28.17;;;14.10;;
7495;SDS011;3789;47.064;15.482;2022-12-05T06:02:40;28.87;;;15.37;;
7495;SDS011;3789;47.064;15.482;2022-12-05T06:05:19;28.50;;;14.07;;
7495;SDS011;3789;47.064;15.482;2022-12-05T06:07:48;27.57;;;14.40;;
7495;SDS011;3789;47.064;15.482;2022-12-05T06:10:19;30.50;;;14.93;;
7495;SDS011;3789;47.064;15.482;2022-12-05T06:12:58;37.03;;;16.37;;
7495;SDS011;3789;47.064;15.482;2022-12-05T06:15:27;24.73;;;12.77;;
7495;SDS011;3789;47.064;15.482;2022-12-05T06:17:56;25.87;;;14.27;;
7495;SDS011;3789;47.064;15.482;2022-12-05T06:20:24;35.30;;;15.67;;
7495;SDS011;3789;47.064;15.482;2022-12-05T06:23:01;28.30;;;14.50;;
7495;SDS011;3789;47.064;15.482;2022-12-05T06:25:39;31.40;;;15.30;;
7495;SDS011;3789;47.064;15.482;2022-12-05T06:28:17;33.37;;;15.33;;
7495;SDS011;3789;47.064;15.482;2022-12-05T06:31:11;33.53;;;15.07;;
7495;SDS011;3789;47.064;15.482;2022-12-05T06:33:41;33.80;;;16.13;;
7495;SDS011;3789;47.064;15.482;2022-12-05T06:36:11;27.30;;;15.07;;
7495;SDS011;3789;47.064;15.482;2022-12-05T06:38:43;32.63;;;16.50;;
7495;SDS011;3789;47.064;15.482;2022-12-05T06:41:21;24.40;;;13.87;;
7495;SDS011;3789;47.064;15.482;2022-12-05T06:43:55;30.83;;;15.57;;
7495;SDS011;3789;47.064;15.482;2022-12-05T06:46:29;34.00;;;17.03;;
7495;SDS011;3789;47.064;15.482;2022-12-05T06:49:01;30.53;;;15.07;;
7495;SDS011;3789;47.064;15.482;2022-12-05T06:51:29;30.30;;;14.80;;
7495;SDS011;3789;47.064;15.482;2022-12-05T06:54:07;28.00;;;15.03;;
7495;SDS011;3789;47.064;15.482;2022-12-05T06:56:37;30.80;;;16.00;;
7495;SDS011;3789;47.064;15.482;2022-12-05T06:59:06;31.17;;;15.63;;
7495;SDS011;3789;47.064;15.482;2022-12-05T07:01:42;28.03;;;15.77;;
7495;SDS011;3789;47.064;15.482;2022-12-05T07:04:14;30.43;;;15.43;;
7495;SDS011;3789;47.064;15.482;2022-12-05T07:06:49;28.33;;;16.37;;
7495;SDS011;3789;47.064;15.482;2022-12-05T07:09:22;27.73;;;14.30;;
7495;SDS011;3789;47.064;15.482;2022-12-05T07:12:15;27.80;;;15.20;;
7495;SDS011;3789;47.064;15.482;2022-12-05T07:14:44;24.27;;;13.37;;
7495;SDS011;3789;47.064;15.482;2022-12-05T07:17:20;27.50;;;15.27;;
7495;SDS011;3789;47.064;15.482;2022-12-05T07:19:50;32.30;;;16.03;;
7495;SDS011;3789;47.064;15.482;2022-12-05T07:22:27;26.93;;;15.50;;
7495;SDS011;3789;47.064;15.482;2022-12-05T07:25:03;27.50;;;15.80;;
7495;SDS011;3789;47.064;15.482;2022-12-05T07:27:39;27.57;;;14.63;;
7495;SDS011;3789;47.064;15.482;2022-12-05T07:30:08;25.33;;;15.20;;
7495;SDS011;3789;47.064;15.482;2022-12-05T07:32:39;27.10;;;14.53;;
7495;SDS011;3789;47.064;15.482;2022-12-05T07:35:10;27.13;;;15.90;;
7495;SDS011;3789;47.064;15.482;2022-12-05T07:37:37;27.67;;;15.60;;
7495;SDS011;3789;47.064;15.482;2022-12-05T07:40:05;24.63;;;14.73;;
7495;SDS011;3789;47.064;15.482;2022-12-05T07:42:40;26.97;;;14.93;;
7495;SDS011;3789;47.064;15.482;2022-12-05T07:45:11;28.97;;;15.90;;
7495;SDS011;3789;47.064;15.482;2022-12-05T07:47:39;25.10;;;14.50;;
7495;SDS011;3789;47.064;15.482;2022-12-05T07:50:08;26.23;;;15.10;;
7495;SDS011;3789;47.064;15.482;2022-12-05T07:52:40;26.10;;;15.53;;
7495;SDS011;3789;47.064;15.482;2022-12-05T07:55:09;24.47;;;15.20;;
7495;SDS011;3789;47.064;15.482;2022-12-05T07:57:46;24.13;;;15.23;;
7495;SDS011;3789;47.064;15.482;2022-12-05T08:00:22;27.30;;;15.37;;
7495;SDS011;3789;47.064;15.482;2022-12-05T08:02:54;25.13;;;15.37;;
7495;SDS011;3789;47.064;15.482;2022-12-05T08:05:24;25.60;;;16.47;;
7495;SDS011;3789;47.064;15.482;2022-12-05T08:07:54;27.77;;;16.70;;
7495;SDS011;3789;47.064;15.482;2022-12-05T08:10:24;23.67;;;14.60;;
7495;SDS011;3789;47.064;15.482;2022-12-05T08:12:59;24.70;;;15.17;;
7495;SDS011;3789;47.064;15.482;2022-12-05T08:15:28;25.70;;;14.70;;
7495;SDS011;3789;47.064;15.482;2022-12-05T08:17:57;22.77;;;15.47;;
7495;SDS011;3789;47.064;15.482;2022-12-05T08:20:31;25.10;;;14.87;;
7495;SDS011;3789;47.064;15.482;2022-12-05T08:23:01;25.37;;;15.27;;
7495;SDS011;3789;47.064;15.482;2022-12-05T08:25:28;26.60;;;15.03;;
7495;SDS011;3789;47.064;15.482;2022-12-05T08:27:57;24.33;;;15.33;;
7495;SDS011;3789;47.064;15.482;2022-12-05T08:30:25;23.00;;;15.00;;
7495;SDS011;3789;47.064;15.482;2022-12-05T08:32:54;23.20;;;15.00;;
7495;SDS011;3789;47.064;15.482;2022-12-05T08:35:23;22.53;;;15.63;;
7495;SDS011;3789;47.064;15.482;2022-12-05T08:38:03;25.07;;;15.53;;
7495;SDS011;3789;47.064;15.482;2022-12-05T08:40:34;25.53;;;16.80;;
7495;SDS011;3789;47.064;15.482;2022-12-05T08:43:04;22.83;;;15.53;;
7495;SDS011;3789;47.064;15.482;2022-12-05T08:45:32;23.83;;;15.63;;
7495;SDS011;3789;47.064;15.482;2022-12-05T08:48:02;25.90;;;16.87;;
7495;SDS011;3789;47.064;15.482;2022-12-05T08:50:41;23.80;;;15.83;;
7495;SDS011;3789;47.064;15.482;2022-12-05T08:53:12;20.30;;;14.97;;
7495;SDS011;3789;47.064;15.482;2022-12-05T08:55:42;22.47;;;15.43;;
7495;SDS011;3789;47.064;15.482;2022-12-05T08:58:13;26.33;;;15.27;;
7495;SDS011;3789;47.064;15.482;2022-12-05T09:00:46;24.23;;;14.07;;
7495;SDS011;3789;47.064;15.482;2022-12-05T09:03:16;22.93;;;15.47;;
7495;SDS011;3789;47.064;15.482;2022-12-05T09:05:47;21.73;;;14.63;;
7495;SDS011;3789;47.064;15.482;2022-12-05T09:08:22;21.93;;;15.10;;
7495;SDS011;3789;47.064;15.482;2022-12-05T09:10:54;25.43;;;15.77;;
7495;SDS011;3789;47.064;15.482;2022-12-05T09:13:22;21.73;;;15.60;;
7495;SDS011;3789;47.064;15.482;2022-12-05T09:15:51;24.30;;;16.03;;
7495;SDS011;3789;47.064;15.482;2022-12-05T09:18:19;20.87;;;14.50;;
7495;SDS011;3789;47.064;15.482;2022-12-05T09:21:03;24.97;;;14.73;;
7495;SDS011;3789;47.064;15.482;2022-12-05T09:23:35;24.53;;;15.37;;
7495;SDS011;3789;47.064;15.482;2022-12-05T09:26:08;21.67;;;13.23;;
7495;SDS011;3789;47.064;15.482;2022-12-05T09:28:40;21.13;;;14.07;;
7495;SDS011;3789;47.064;15.482;2022-12-05T09:31:16;20.00;;;14.10;;
7495;SDS011;3789;47.064;15.482;2022-12-05T09:33:55;20.17;;;14.67;;
7495;SDS011;3789;47.064;15.482;2022-12-05T09:36:26;22.67;;;15.77;;
7495;SDS011;3789;47.064;15.482;2022-12-05T09:38:58;22.83;;;14.27;;
7495;SDS011;3789;47.064;15.482;2022-12-05T09:47:53;17.10;;;11.47;;
7495;SDS011;3789;47.064;15.482;2022-12-05T09:50:41;15.50;;;11.17;;
7495;SDS011;3789;47.064;15.482;2022-12-05T09:53:36;14.97;;;10.17;;
7495;SDS011;3789;47.064;15.482;2022-12-05T09:56:20;15.10;;;9.57;;
7495;SDS011;3789;47.064;15.482;2022-12-05T09:58:57;18.57;;;10.63;;
7495;SDS011;3789;47.064;15.482;2022-12-05T10:01:49;19.63;;;11.53;;
7495;SDS011;3789;47.064;15.482;2022-12-05T10:04:54;14.23;;;9.77;;
7495;SDS011;3789;47.064;15.482;2022-12-05T10:07:57;15.70;;;10.30;;
7495;SDS011;3789;47.064;15.482;2022-12-05T10:11:04;17.97;;;11.10;;
7495;SDS011;3789;47.064;15.482;2022-12-05T10:19:18;18.73;;;11.53;;
7495;SDS011;3789;47.064;15.482;2022-12-05T10:24:53;18.53;;;11.53;;
7495;SDS011;3789;47.064;15.482;2022-12-05T10:27:32;18.47;;;10.50;;
7495;SDS011;3789;47.064;15.482;2022-12-05T10:30:20;18.47;;;10.67;;
7495;SDS011;3789;47.064;15.482;2022-12-05T10:33:03;16.40;;;10.63;;
7495;SDS011;3789;47.064;15.482;2022-12-05T10:35:40;19.57;;;11.83;;
7495;SDS011;3789;47.064;15.482;2022-12-05T10:38:12;26.53;;;14.40;;
7495;SDS011;3789;47.064;15.482;2022-12-05T10:40:54;24.50;;;13.17;;
7495;SDS011;3789;47.064;15.482;2022-12-05T10:43:29;16.27;;;10.67;;
7495;SDS011;3789;47.064;15.482;2022-12-05T10:46:01;27.13;;;16.27;;
7495;SDS011;3789;47.064;15.482;2022-12-05T10:48:43;26.97;;;16.73;;
7495;SDS011;3789;47.064;15.482;2022-12-05T10:51:13;32.03;;;17.90;;
7495;SDS011;3789;47.064;15.482;2022-12-05T10:53:50;36.57;;;18.60;;
7495;SDS011;3789;47.064;15.482;2022-12-05T10:56:43;29.57;;;17.63;;
7495;SDS011;3789;47.064;15.482;2022-12-05T10:59:18;32.00;;;17.33;;
7495;SDS011;3789;47.064;15.482;2022-12-05T11:02:21;34.10;;;18.90;;
7495;SDS011;3789;47.064;15.482;2022-12-05T11:05:02;30.40;;;18.10;;
7495;SDS011;3789;47.064;15.482;2022-12-05T11:07:34;27.43;;;16.17;;
7495;SDS011;3789;47.064;15.482;2022-12-05T11:13:22;26.07;;;17.17;;
7495;SDS011;3789;47.064;15.482;2022-12-05T11:19:46;24.33;;;15.30;;
7495;SDS011;3789;47.064;15.482;2022-12-05T11:22:29;24.23;;;15.10;;
7495;SDS011;3789;47.064;15.482;2022-12-05T11:28:22;24.17;;;15.00;;
7495;SDS011;3789;47.064;15.482;2022-12-05T11:34:24;22.47;;;14.80;;
7495;SDS011;3789;47.064;15.482;2022-12-05T11:37:09;16.77;;;11.67;;
7495;SDS011;3789;47.064;15.482;2022-12-05T11:39:56;18.80;;;12.50;;
7495;SDS011;3789;47.064;15.482;2022-12-05T11:49:28;17.17;;;11.73;;
7495;SDS011;3789;47.064;15.482;2022-12-05T12:04:36;17.97;;;13.30;;
7495;SDS011;3789;47.064;15.482;2022-12-05T12:16:30;17.00;;;12.27;;
7495;SDS011;3789;47.064;15.482;2022-12-05T12:31:18;15.40;;;11.63;;
7495;SDS011;3789;47.064;15.482;2022-12-05T12:36:55;15.10;;;12.07;;
7495;SDS011;3789;47.064;15.482;2022-12-05T12:39:51;18.00;;;11.03;;
7495;SDS011;3789;47.064;15.482;2022-12-05T12:42:53;16.53;;;11.60;;
7495;SDS011;3789;47.064;15.482;2022-12-05T12:51:31;18.33;;;12.40;;
7495;SDS011;3789;47.064;15.482;2022-12-05T12:54:03;18.20;;;12.23;;
7495;SDS011;3789;47.064;15.482;2022-12-05T12:57:26;19.97;;;13.20;;
7495;SDS011;3789;47.064;15.482;2022-12-05T13:00:30;18.50;;;13.73;;
7495;SDS011;3789;47.064;15.482;2022-12-05T13:03:24;18.73;;;13.00;;
7495;SDS011;3789;47.064;15.482;2022-12-05T13:06:27;18.23;;;12.53;;
7495;SDS011;3789;47.064;15.482;2022-12-05T13:09:28;19.90;;;12.87;;
7495;SDS011;3789;47.064;15.482;2022-12-05T13:12:21;21.17;;;13.30;;
7495;SDS011;3789;47.064;15.482;2022-12-05T13:14:53;19.20;;;12.60;;
7495;SDS011;3789;47.064;15.482;2022-12-05T13:17:26;22.00;;;13.70;;
7495;SDS011;3789;47.064;15.482;2022-12-05T13:19:59;21.47;;;13.30;;
7495;SDS011;3789;47.064;15.482;2022-12-05T13:22:30;20.30;;;12.37;;
7495;SDS011;3789;47.064;15.482;2022-12-05T13:25:14;17.13;;;11.90;;
7495;SDS011;3789;47.064;15.482;2022-12-05T13:28:00;17.90;;;12.23;;
7495;SDS011;3789;47.064;15.482;2022-12-05T13:30:36;17.13;;;11.30;;
7495;SDS011;3789;47.064;15.482;2022-12-05T13:33:28;17.47;;;11.20;;
7495;SDS011;3789;47.064;15.482;2022-12-05T13:36:25;16.07;;;11.53;;
7495;SDS011;3789;47.064;15.482;2022-12-05T13:39:20;17.60;;;12.63;;
7495;SDS011;3789;47.064;15.482;2022-12-05T13:42:30;19.57;;;12.27;;
7495;SDS011;3789;47.064;15.482;2022-12-05T13:45:08;18.53;;;11.90;;
7495;SDS011;3789;47.064;15.482;2022-12-05T13:54:23;17.13;;;10.90;;
7495;SDS011;3789;47.064;15.482;2022-12-05T13:57:04;19.30;;;13.93;;
7495;SDS011;3789;47.064;15.482;2022-12-05T14:02:50;16.13;;;11.93;;
7495;SDS011;3789;47.064;15.482;2022-12-05T14:05:45;21.03;;;12.07;;
7495;SDS011;3789;47.064;15.482;2022-12-05T14:11:18;22.37;;;13.67;;
7495;SDS011;3789;47.064;15.482;2022-12-05T14:13:47;21.97;;;14.13;;
7495;SDS011;3789;47.064;15.482;2022-12-05T14:16:39;26.60;;;15.43;;
7495;SDS011;3789;47.064;15.482;2022-12-05T14:19:43;23.10;;;14.43;;
7495;SDS011;3789;47.064;15.482;2022-12-05T14:28:47;24.57;;;15.40;;
7495;SDS011;3789;47.064;15.482;2022-12-05T14:35:10;25.17;;;15.43;;
7495;SDS011;3789;47.064;15.482;2022-12-05T14:37:58;24.07;;;14.03;;
7495;SDS011;3789;47.064;15.482;2022-12-05T14:40:45;26.20;;;15.23;;
7495;SDS011;3789;47.064;15.482;2022-12-05T14:43:34;28.13;;;16.10;;
7495;SDS011;3789;47.064;15.482;2022-12-05T14:46:21;24.53;;;16.00;;
7495;SDS011;3789;47.064;15.482;2022-12-05T14:49:50;35.87;;;15.67;;
7495;SDS011;3789;47.064;15.482;2022-12-05T14:52:30;26.40;;;15.63;;
7495;SDS011;3789;47.064;15.482;2022-12-05T14:55:10;25.47;;;15.73;;
7495;SDS011;3789;47.064;15.482;2022-12-05T14:57:52;27.97;;;16.00;;
7495;SDS011;3789;47.064;15.482;2022-12-05T15:00:22;24.73;;;15.37;;
7495;SDS011;3789;47.064;15.482;2022-12-05T15:02:57;27.87;;;15.33;;
7495;SDS011;3789;47.064;15.482;2022-12-05T15:05:32;21.93;;;13.93;;
7495;SDS011;3789;47.064;15.482;2022-12-05T15:08:01;24.90;;;15.07;;
7495;SDS011;3789;47.064;15.482;2022-12-05T15:10:32;29.40;;;14.90;;
7495;SDS011;3789;47.064;15.482;2022-12-05T15:13:18;27.80;;;15.27;;
7495;SDS011;3789;47.064;15.482;2022-12-05T15:18:51;42.87;;;16.00;;
7495;SDS011;3789;47.064;15.482;2022-12-05T15:21:39;25.17;;;14.63;;
7495;SDS011;3789;47.064;15.482;2022-12-05T15:24:21;28.20;;;15.07;;
7495;SDS011;3789;47.064;15.482;2022-12-05T15:26:57;23.97;;;14.83;;
7495;SDS011;3789;47.064;15.482;2022-12-05T15:29:29;34.37;;;18.43;;
7495;SDS011;3789;47.064;15.482;2022-12-05T15:32:01;20.37;;;12.07;;
7495;SDS011;3789;47.064;15.482;2022-12-05T15:34:46;25.87;;;16.73;;
7495;SDS011;3789;47.064;15.482;2022-12-05T15:40:38;17.73;;;10.73;;
7495;SDS011;3789;47.064;15.482;2022-12-05T15:43:28;18.03;;;9.97;;
7495;SDS011;3789;47.064;15.482;2022-12-05T15:48:56;16.67;;;11.20;;
7495;SDS011;3789;47.064;15.482;2022-12-05T15:51:35;20.20;;;9.13;;
7495;SDS011;3789;47.064;15.482;2022-12-05T15:54:17;24.67;;;9.73;;
7495;SDS011;3789;47.064;15.482;2022-12-05T16:00:00;13.97;;;8.80;;
7495;SDS011;3789;47.064;15.482;2022-12-05T16:02:41;16.93;;;10.07;;
7495;SDS011;3789;47.064;15.482;2022-12-05T16:05:30;19.40;;;9.73;;
7495;SDS011;3789;47.064;15.482;2022-12-05T16:08:17;35.97;;;9.60;;
7495;SDS011;3789;47.064;15.482;2022-12-05T16:10:45;17.67;;;9.10;;
7495;SDS011;3789;47.064;15.482;2022-12-05T16:13:15;17.63;;;9.33;;
7495;SDS011;3789;47.064;15.482;2022-12-05T16:15:53;18.33;;;9.20;;
7495;SDS011;3789;47.064;15.482;2022-12-05T16:18:29;19.37;;;9.63;;
7495;SDS011;3789;47.064;15.482;2022-12-05T16:21:01;17.37;;;9.13;;
7495;SDS011;3789;47.064;15.482;2022-12-05T16:23:33;17.73;;;10.07;;
7495;SDS011;3789;47.064;15.482;2022-12-05T16:26:25;17.53;;;9.83;;
7495;SDS011;3789;47.064;15.482;2022-12-05T16:28:58;12.03;;;6.70;;
7495;SDS011;3789;47.064;15.482;2022-12-05T16:31:37;19.47;;;11.10;;
7495;SDS011;3789;47.064;15.482;2022-12-05T16:34:07;17.80;;;10.37;;
7495;SDS011;3789;47.064;15.482;2022-12-05T16:36:55;15.43;;;9.30;;
7495;SDS011;3789;47.064;15.482;2022-12-05T16:39:27;13.53;;;9.00;;
7495;SDS011;3789;47.064;15.482;2022-12-05T16:41:58;20.03;;;10.17;;
7495;SDS011;3789;47.064;15.482;2022-12-05T16:47:24;52.10;;;19.83;;
7495;SDS011;3789;47.064;15.482;2022-12-05T16:50:33;66.80;;;17.70;;
7495;SDS011;3789;47.064;15.482;2022-12-05T16:55:43;47.77;;;15.70;;
7495;SDS011;3789;47.064;15.482;2022-12-05T16:58:16;31.30;;;17.33;;
7495;SDS011;3789;47.064;15.482;2022-12-05T17:00:58;61.87;;;21.23;;
7495;SDS011;3789;47.064;15.482;2022-12-05T17:03:33;166.10;;;30.13;;
7495;SDS011;3789;47.064;15.482;2022-12-05T17:06:03;49.37;;;18.10;;
7495;SDS011;3789;47.064;15.482;2022-12-05T17:08:40;30.23;;;17.03;;
7495;SDS011;3789;47.064;15.482;2022-12-05T17:11:14;28.63;;;16.83;;
7495;SDS011;3789;47.064;15.482;2022-12-05T17:13:49;33.03;;;18.13;;
7495;SDS011;3789;47.064;15.482;2022-12-05T17:16:19;37.50;;;19.60;;
7495;SDS011;3789;47.064;15.482;2022-12-05T17:18:49;33.43;;;19.57;;
7495;SDS011;3789;47.064;15.482;2022-12-05T17:21:18;29.80;;;16.70;;
7495;SDS011;3789;47.064;15.482;2022-12-05T17:23:50;28.63;;;16.17;;
7495;SDS011;3789;47.064;15.482;2022-12-05T17:26:20;47.57;;;18.10;;
7495;SDS011;3789;47.064;15.482;2022-12-05T17:28:50;32.57;;;19.10;;
7495;SDS011;3789;47.064;15.482;2022-12-05T17:31:19;36.30;;;20.27;;
7495;SDS011;3789;47.064;15.482;2022-12-05T17:33:51;30.00;;;17.53;;
7495;SDS011;3789;47.064;15.482;2022-12-05T17:36:23;51.53;;;15.10;;
7495;SDS011;3789;47.064;15.482;2022-12-05T17:38:59;34.20;;;17.93;;
7495;SDS011;3789;47.064;15.482;2022-12-05T17:41:31;54.67;;;21.00;;
7495;SDS011;3789;47.064;15.482;2022-12-05T17:44:03;30.73;;;17.20;;
7495;SDS011;3789;47.064;15.482;2022-12-05T17:46:36;63.73;;;20.67;;
7495;SDS011;3789;47.064;15.482;2022-12-05T17:49:15;73.30;;;20.37;;
7495;SDS011;3789;47.064;15.482;2022-12-05T17:51:48;114.63;;;23.40;;
7495;SDS011;3789;47.064;15.482;2022-12-05T17:54:42;46.03;;;18.83;;
7495;SDS011;3789;47.064;15.482;2022-12-05T17:57:14;34.33;;;18.03;;
7495;SDS011;3789;47.064;15.482;2022-12-05T17:59:52;34.63;;;17.93;;
7495;SDS011;3789;47.064;15.482;2022-12-05T18:02:23;27.63;;;16.43;;
7495;SDS011;3789;47.064;15.482;2022-12-05T18:04:53;27.03;;;15.97;;
7495;SDS011;3789;47.064;15.482;2022-12-05T18:07:21;34.33;;;17.27;;
7495;SDS011;3789;47.064;15.482;2022-12-05T18:09:52;29.13;;;17.53;;